Time;durP1;ratioP1;P1;durP2;ratioP2;P2;SDS_P1;SDS_P2;PMS_P1;PMS_P2;Temp;Humidity;BMP_temperature;BMP_pressure;BME280_temperature;BME280_humidity;BME280_pressure;Samples;Min_cycle;Max_cycle;Signal;HPM_P1;HPM_P2
2021/07/20 00:02:18;;;;;;;14.60;10.40;;;;;;;15.67;93.38;102018.13;5220144;28;20033;-69
2021/07/20 00:04:49;;;;;;;15.88;10.65;;;;;;;15.54;92.91;102020.16;5220161;28;20037;-68
2021/07/20 00:07:20;;;;;;;14.85;10.20;;;;;;;15.53;93.07;102016.69;5221225;28;20030;-68
2021/07/20 00:09:51;;;;;;;15.52;10.50;;;;;;;15.61;92.16;102023.94;5218765;28;20048;-68
2021/07/20 00:12:23;;;;;;;14.75;9.95;;;;;;;15.47;93.08;102027.78;5219202;28;20025;-68
2021/07/20 00:14:54;;;;;;;15.52;10.80;;;;;;;15.46;92.78;102022.63;5219481;28;20029;-68
2021/07/20 00:17:28;;;;;;;13.65;10.55;;;;;;;15.43;92.65;102022.91;5219490;28;20080;-68
2021/07/20 00:19:59;;;;;;;17.52;11.63;;;;;;;15.45;92.52;102024.41;5219226;28;20049;-68
2021/07/20 00:22:30;;;;;;;20.08;10.48;;;;;;;15.38;92.94;102022.44;5219993;28;20026;-68
2021/07/20 00:25:04;;;;;;;15.68;10.77;;;;;;;15.38;93.50;102025.94;5218067;28;20132;-68
2021/07/20 00:27:35;;;;;;;15.25;10.63;;;;;;;15.38;92.44;102025.06;5219197;28;20033;-68
2021/07/20 00:30:09;;;;;;;14.88;10.48;;;;;;;15.42;92.33;102022.06;5221130;28;20029;-68
2021/07/20 00:32:40;;;;;;;14.98;10.80;;;;;;;15.32;92.45;102023.81;5219176;28;20041;-68
2021/07/20 00:35:13;;;;;;;13.48;10.40;;;;;;;15.29;93.03;102026.72;5219503;28;20295;-68
2021/07/20 00:37:44;;;;;;;14.48;10.60;;;;;;;15.26;92.76;102021.69;5214245;28;20049;-68
2021/07/20 00:40:18;;;;;;;15.40;11.10;;;;;;;15.22;93.44;102025.56;5217324;28;20084;-68
2021/07/20 00:42:50;;;;;;;14.27;10.45;;;;;;;15.24;93.25;102027.13;5224167;28;20075;-68
2021/07/20 00:45:21;;;;;;;16.25;10.95;;;;;;;15.18;92.79;102027.63;5222817;28;20029;-68
2021/07/20 00:47:52;;;;;;;14.30;10.60;;;;;;;15.15;93.37;102033.16;5222869;28;20033;-68
2021/07/20 00:50:27;;;;;;;14.40;10.35;;;;;;;15.16;93.41;102032.22;5223581;28;20034;-68
2021/07/20 00:52:58;;;;;;;13.68;9.80;;;;;;;14.99;93.91;102020.44;5223160;28;20033;-69
2021/07/20 00:55:30;;;;;;;14.52;10.20;;;;;;;15.05;93.73;102027.03;5224167;28;20037;-68
2021/07/20 00:58:03;;;;;;;15.77;11.13;;;;;;;15.00;94.33;102021.28;5223704;28;20060;-68
2021/07/20 01:00:36;;;;;;;13.93;10.07;;;;;;;15.01;94.26;102028.25;5222507;28;20125;-68
2021/07/20 01:03:07;;;;;;;13.88;10.25;;;;;;;14.99;94.23;102031.00;5222777;28;20025;-68
2021/07/20 01:05:38;;;;;;;15.95;10.45;;;;;;;14.95;93.71;102028.75;5221486;28;20036;-68
2021/07/20 01:08:11;;;;;;;14.50;10.90;;;;;;;14.91;94.91;102029.97;5225445;28;20098;-68
2021/07/20 01:10:44;;;;;;;16.60;10.68;;;;;;;14.95;94.91;102026.94;5221990;28;20530;-68
2021/07/20 01:13:16;;;;;;;19.50;11.00;;;;;;;14.84;95.12;102019.09;5225451;28;20359;-68
2021/07/20 01:15:48;;;;;;;18.00;10.73;;;;;;;14.78;95.51;102019.63;5222607;28;20549;-68
2021/07/20 01:18:20;;;;;;;16.30;10.57;;;;;;;14.77;94.86;102008.25;5223020;28;20116;-68
2021/07/20 01:20:53;;;;;;;15.60;10.77;;;;;;;14.75;95.05;102023.34;5222374;28;20285;-68
2021/07/20 01:23:32;;;;;;;17.10;11.10;;;;;;;14.80;94.93;102021.16;5225832;28;20029;-68
2021/07/20 01:26:04;;;;;;;17.77;12.15;;;;;;;14.75;95.60;102023.34;5219056;28;20038;-69
2021/07/20 01:28:38;;;;;;;16.23;10.97;;;;;;;14.73;95.19;102014.72;5222559;28;20041;-67
2021/07/20 01:31:16;;;;;;;15.02;11.07;;;;;;;14.68;95.99;102016.91;5223976;28;20037;-67
2021/07/20 01:33:51;;;;;;;15.93;10.70;;;;;;;14.58;96.41;102016.88;5223504;28;20056;-68
2021/07/20 01:36:24;;;;;;;18.33;11.77;;;;;;;14.55;96.77;102016.28;5222043;28;20180;-67
2021/07/20 01:38:56;;;;;;;;;;;;;;;14.89;93.95;102013.44;5222799;28;20099;-67
2021/07/20 01:41:29;;;;;;;14.60;10.60;;;;;;;14.56;96.82;102018.78;5223905;28;19917;-67
2021/07/20 01:44:05;;;;;;;17.48;11.27;;;;;;;14.48;97.44;102020.34;5222900;28;20049;-68
2021/07/20 01:46:38;;;;;;;15.77;10.90;;;;;;;14.45;97.36;102015.34;5223016;28;20033;-68
2021/07/20 01:49:15;;;;;;;17.38;12.25;;;;;;;14.45;97.67;102016.16;5222887;28;20033;-68
2021/07/20 01:51:47;;;;;;;16.17;11.57;;;;;;;14.32;98.09;102023.41;5222413;28;20024;-68
2021/07/20 01:54:19;;;;;;;17.73;11.57;;;;;;;14.37;97.73;102021.22;5220093;28;20022;-68
2021/07/20 01:56:51;;;;;;;15.25;10.57;;;;;;;14.34;97.96;102014.41;5219989;28;20049;-67
2021/07/20 01:59:22;;;;;;;18.70;11.45;;;;;;;14.34;97.87;102018.84;5223042;28;20059;-68
2021/07/20 02:02:27;;;;;;;17.83;11.45;;;;;;;14.28;98.16;102012.28;5221669;28;20508;-68
2021/07/20 02:10:19;;;;;;;17.73;11.80;;;;;;;14.16;98.83;102015.91;5219306;28;20515;-67
2021/07/20 02:12:52;;;;;;;15.65;11.57;;;;;;;14.12;99.21;102023.22;5219419;28;20034;-68
2021/07/20 02:15:24;;;;;;;;;;;;;;;14.46;96.24;102023.09;5223661;28;20318;-68
2021/07/20 02:17:57;;;;;;;14.60;10.60;;;;;;;14.14;99.20;102020.47;5219007;28;20377;-67
2021/07/20 02:20:31;;;;;;;17.52;11.52;;;;;;;14.08;99.13;102020.97;5222715;28;20032;-67
2021/07/20 02:23:04;;;;;;;15.57;11.93;;;;;;;14.01;99.48;102025.88;5222355;28;20099;-68
2021/07/20 02:25:37;;;;;;;16.42;11.82;;;;;;;13.94;100.00;102030.00;5221582;28;20046;-67
2021/07/20 02:28:10;;;;;;;16.08;12.15;;;;;;;13.96;100.00;102032.50;5219798;28;20037;-67
2021/07/20 02:30:43;;;;;;;18.20;11.80;;;;;;;13.90;100.00;102032.97;5221257;28;20032;-67
2021/07/20 02:33:14;;;;;;;16.80;11.25;;;;;;;13.83;100.00;102024.75;5222527;28;20034;-67
2021/07/20 02:35:49;;;;;;;16.23;11.27;;;;;;;13.80;100.00;102031.09;5218579;28;20541;-67
2021/07/20 02:38:21;;;;;;;16.90;11.85;;;;;;;13.69;100.00;102028.47;5221617;28;20626;-67
2021/07/20 02:40:53;;;;;;;18.60;12.18;;;;;;;13.65;100.00;102029.66;5224536;28;20033;-67
2021/07/20 02:43:26;;;;;;;16.30;11.63;;;;;;;13.71;100.00;102028.34;5221960;28;20147;-67
2021/07/20 02:45:58;;;;;;;16.98;11.95;;;;;;;13.66;100.00;102031.34;5220366;28;20026;-67
2021/07/20 02:48:30;;;;;;;19.77;12.10;;;;;;;13.59;100.00;102035.41;5220945;28;20044;-67
2021/07/20 02:51:01;;;;;;;18.35;11.90;;;;;;;13.57;100.00;102035.53;5221641;28;20037;-68
2021/07/20 02:53:36;;;;;;;14.95;11.20;;;;;;;13.57;100.00;102032.06;5221560;28;20033;-68
2021/07/20 02:56:10;;;;;;;14.75;10.50;;;;;;;13.53;100.00;102028.00;5223487;28;20693;-68
2021/07/20 02:58:44;;;;;;;18.50;11.43;;;;;;;13.41;100.00;102023.69;5221632;28;20029;-68
2021/07/20 03:01:17;;;;;;;17.70;11.70;;;;;;;13.33;100.00;102027.78;5219708;28;20029;-68
2021/07/20 03:03:49;;;;;;;17.42;11.55;;;;;;;13.30;100.00;102024.53;5220625;28;20398;-67
2021/07/20 03:06:23;;;;;;;20.75;12.63;;;;;;;13.33;100.00;102019.88;5220745;28;20017;-67
2021/07/20 03:08:58;;;;;;;16.23;11.63;;;;;;;13.30;100.00;102019.28;5221554;28;20479;-67
2021/07/20 03:11:33;;;;;;;17.17;12.20;;;;;;;13.27;100.00;102020.34;5216664;28;20026;-68
2021/07/20 03:14:08;;;;;;;17.90;11.10;;;;;;;13.29;100.00;102022.84;5220532;28;20131;-68
2021/07/20 03:16:42;;;;;;;17.60;11.40;;;;;;;13.26;100.00;102023.94;5212332;28;20037;-68
2021/07/20 03:19:15;;;;;;;16.42;12.23;;;;;;;13.22;100.00;102030.38;5219566;28;20043;-67
2021/07/20 03:21:49;;;;;;;16.35;11.05;;;;;;;13.20;100.00;102026.16;5221499;28;20020;-67
2021/07/20 03:24:22;;;;;;;21.60;12.02;;;;;;;13.16;100.00;102025.56;5219053;28;20514;-68
2021/07/20 03:26:55;;;;;;;19.48;11.70;;;;;;;13.17;100.00;102029.03;5219531;28;20500;-69
2021/07/20 03:29:27;;;;;;;;;;;;;;;13.45;100.00;102025.97;5221291;28;20782;-69
2021/07/20 03:31:59;;;;;;;18.60;10.82;;;;;;;13.12;100.00;102024.97;5222086;28;19913;-67
2021/07/20 03:34:30;;;;;;;19.00;11.55;;;;;;;13.09;100.00;102024.34;5218805;28;20029;-67
2021/07/20 03:37:03;;;;;;;17.83;12.20;;;;;;;13.02;100.00;102028.41;5211396;28;20060;-68
2021/07/20 03:39:40;;;;;;;16.92;11.10;;;;;;;13.04;100.00;102021.25;5218937;28;20048;-67
2021/07/20 03:42:12;;;;;;;15.93;10.68;;;;;;;12.96;100.00;102024.47;5221067;28;20026;-67
2021/07/20 03:44:43;;;;;;;17.80;10.73;;;;;;;12.96;100.00;102023.63;5221236;28;20090;-67
2021/07/20 03:47:16;;;;;;;17.80;11.30;;;;;;;12.94;100.00;102015.00;5220781;28;20394;-68
2021/07/20 03:49:47;;;;;;;19.92;12.30;;;;;;;12.89;100.00;102018.81;5216445;28;20026;-68
2021/07/20 03:52:20;;;;;;;19.38;11.65;;;;;;;12.96;100.00;102018.38;5220270;28;20022;-68
2021/07/20 03:54:52;;;;;;;17.63;11.88;;;;;;;12.89;100.00;102012.72;5220105;28;20029;-67
2021/07/20 03:57:24;;;;;;;17.73;11.68;;;;;;;12.79;100.00;102007.31;5218356;28;20029;-68
2021/07/20 03:59:59;;;;;;;18.33;11.27;;;;;;;12.87;100.00;102017.25;5218346;28;20052;-68
2021/07/20 04:02:44;;;;;;;18.92;11.95;;;;;;;12.93;100.00;102019.44;5220215;28;20025;-68
2021/07/20 04:05:16;;;;;;;15.82;11.35;;;;;;;12.86;100.00;102026.94;5218480;28;20415;-68
2021/07/20 04:07:51;;;;;;;16.75;11.40;;;;;;;12.94;100.00;102029.00;5217923;28;20242;-68
2021/07/20 04:10:22;;;;;;;16.63;11.13;;;;;;;12.84;100.00;102022.75;5220594;28;20044;-68
2021/07/20 04:12:53;;;;;;;16.60;11.07;;;;;;;12.86;100.00;102024.31;5219399;28;20029;-68
2021/07/20 04:15:25;;;;;;;18.42;11.40;;;;;;;12.80;100.00;102027.41;5222460;28;20395;-67
2021/07/20 04:17:56;;;;;;;19.33;11.55;;;;;;;12.82;100.00;102029.94;5224365;28;20027;-68
2021/07/20 04:20:28;;;;;;;19.15;12.32;;;;;;;12.79;100.00;102031.00;5222159;28;20029;-68
2021/07/20 04:22:59;;;;;;;18.65;12.25;;;;;;;12.79;100.00;102027.53;5225049;28;20075;-68
2021/07/20 04:25:34;;;;;;;18.05;12.02;;;;;;;12.80;100.00;102029.19;5225287;28;20084;-67
2021/07/20 04:28:06;;;;;;;20.05;11.70;;;;;;;12.80;100.00;102030.03;5225583;28;20029;-67
2021/07/20 04:30:39;;;;;;;17.95;11.23;;;;;;;12.75;100.00;102031.34;5224062;28;20041;-68
2021/07/20 04:33:13;;;;;;;16.88;11.70;;;;;;;12.82;100.00;102027.28;5222505;28;20427;-67
2021/07/20 04:35:45;;;;;;;21.77;12.13;;;;;;;12.80;100.00;102030.03;5223988;28;20037;-68
2021/07/20 04:38:18;;;;;;;19.25;11.95;;;;;;;12.82;100.00;102020.25;5223575;28;20084;-67
2021/07/20 04:40:50;;;;;;;19.67;13.18;;;;;;;12.97;100.00;102025.31;5222788;28;20485;-67
2021/07/20 04:43:21;;;;;;;20.00;12.05;;;;;;;12.94;100.00;102034.25;5224345;28;20057;-68
2021/07/20 04:45:54;;;;;;;19.25;12.30;;;;;;;13.03;100.00;102027.44;5224183;28;20681;-67
2021/07/20 04:48:26;;;;;;;18.85;12.07;;;;;;;13.07;100.00;102035.00;5225528;28;20032;-68
2021/07/20 04:50:57;;;;;;;18.00;11.93;;;;;;;13.05;100.00;102041.34;5223893;28;20029;-68
2021/07/20 04:53:29;;;;;;;20.95;12.80;;;;;;;13.10;100.00;102041.81;5225139;28;20032;-68
2021/07/20 04:56:00;;;;;;;19.35;12.60;;;;;;;13.13;100.00;102046.84;5223635;28;20549;-67
2021/07/20 04:58:33;;;;;;;20.40;13.73;;;;;;;13.16;100.00;102049.25;5224168;28;20107;-67
2021/07/20 05:01:07;;;;;;;22.58;12.02;;;;;;;13.24;100.00;102048.69;5225070;28;20022;-67
2021/07/20 05:03:39;;;;;;;18.80;12.05;;;;;;;13.28;100.00;102050.13;5221401;28;20022;-67
2021/07/20 05:06:13;;;;;;;22.48;12.57;;;;;;;13.43;100.00;102051.56;5223535;28;20087;-67
2021/07/20 05:08:44;;;;;;;19.15;12.63;;;;;;;13.38;100.00;102041.41;5225629;28;20037;-67
2021/07/20 05:11:20;;;;;;;20.98;13.18;;;;;;;13.46;100.00;102047.88;5224375;28;20069;-68
2021/07/20 05:13:51;;;;;;;18.67;13.13;;;;;;;13.52;100.00;102045.56;5220344;28;20443;-67
2021/07/20 05:16:23;;;;;;;22.27;13.10;;;;;;;13.47;100.00;102049.53;5221295;28;20060;-68
2021/07/20 05:18:54;;;;;;;21.70;13.75;;;;;;;13.50;100.00;102049.31;5224444;28;20131;-67
2021/07/20 05:21:27;;;;;;;22.40;14.35;;;;;;;13.54;100.00;102056.00;5223976;28;20066;-67
2021/07/20 05:23:59;;;;;;;24.92;14.30;;;;;;;13.61;100.00;102051.94;5222576;28;20083;-67
2021/07/20 05:26:31;;;;;;;24.10;15.32;;;;;;;13.67;100.00;102048.81;5220480;28;20045;-68
2021/07/20 05:29:03;;;;;;;23.42;14.32;;;;;;;13.69;100.00;102049.53;5220311;28;20055;-70
2021/07/20 05:31:35;;;;;;;24.35;15.85;;;;;;;13.75;100.00;102049.06;5223189;28;20022;-70
2021/07/20 05:34:07;;;;;;;26.45;15.43;;;;;;;13.83;100.00;102046.66;5221338;28;20038;-70
2021/07/20 05:36:38;;;;;;;22.42;15.32;;;;;;;13.87;100.00;102053.34;5222644;28;20515;-70
2021/07/20 05:39:13;;;;;;;22.25;14.98;;;;;;;13.96;100.00;102054.41;5221854;28;20075;-70
2021/07/20 05:41:45;;;;;;;22.67;14.95;;;;;;;13.98;100.00;102049.88;5218852;28;20084;-70
2021/07/20 05:44:17;;;;;;;23.92;15.82;;;;;;;14.06;100.00;102059.78;5220833;28;20109;-70
2021/07/20 05:46:49;;;;;;;27.63;16.85;;;;;;;14.12;100.00;102062.75;5222002;28;20109;-69
2021/07/20 05:49:21;;;;;;;24.88;15.95;;;;;;;14.23;100.00;102059.25;5222198;28;20033;-68
2021/07/20 05:51:52;;;;;;;25.27;16.05;;;;;;;14.25;100.00;102065.25;5224520;28;20532;-68
2021/07/20 05:54:25;;;;;;;24.58;16.63;;;;;;;14.34;100.00;102067.13;5237248;28;20059;-68
2021/07/20 05:56:57;;;;;;;24.67;15.38;;;;;;;14.41;100.00;102064.84;5221844;28;20032;-69
2021/07/20 05:59:29;;;;;;;24.03;14.67;;;;;;;14.52;100.00;102072.75;5199446;28;20080;-68
2021/07/20 06:02:05;;;;;;;21.45;14.57;;;;;;;14.63;100.00;102071.88;5216099;28;20383;-68
2021/07/20 06:04:37;;;;;;;26.55;16.25;;;;;;;14.69;100.00;102076.63;5213502;28;20037;-68
2021/07/20 06:07:09;;;;;;;25.23;16.15;;;;;;;14.75;100.00;102076.13;5222102;28;20036;-68
2021/07/20 06:09:45;;;;;;;25.65;16.02;;;;;;;14.84;100.00;102070.06;5219468;28;20034;-68
2021/07/20 06:12:19;;;;;;;27.45;15.82;;;;;;;14.91;100.00;102075.69;5222882;28;20013;-68
2021/07/20 06:14:51;;;;;;;25.55;16.50;;;;;;;15.01;100.00;102081.88;5208026;28;21101;-68
2021/07/20 06:17:24;;;;;;;25.45;17.27;;;;;;;15.10;100.00;102069.69;5218495;28;20037;-69
2021/07/20 06:19:55;;;;;;;25.20;16.02;;;;;;;15.16;99.92;102076.28;5212612;28;20022;-68
2021/07/20 06:22:33;;;;;;;26.35;16.17;;;;;;;15.22;99.62;102073.09;5216315;28;20034;-68
2021/07/20 06:25:06;;;;;;;23.17;15.32;;;;;;;15.31;98.70;102082.88;5213835;28;20030;-68
2021/07/20 06:27:38;;;;;;;25.13;15.95;;;;;;;15.41;98.72;102080.28;5213497;28;20495;-68
2021/07/20 06:30:10;;;;;;;25.90;15.68;;;;;;;15.45;98.40;102079.88;5218689;28;20064;-68
2021/07/20 06:32:42;;;;;;;22.38;15.23;;;;;;;15.47;95.90;102075.31;5222213;28;20029;-68
2021/07/20 06:35:15;;;;;;;27.55;15.93;;;;;;;15.61;96.73;102084.69;5217824;28;20033;-68
2021/07/20 06:37:48;;;;;;;26.75;15.32;;;;;;;15.72;96.18;102089.06;5216323;28;20057;-68
2021/07/20 06:40:20;;;;;;;24.02;15.25;;;;;;;15.76;95.67;102088.69;5209693;28;20113;-68
2021/07/20 06:42:54;;;;;;;23.10;15.05;;;;;;;15.86;95.64;102085.22;5221607;28;20052;-68
2021/07/20 06:45:26;;;;;;;22.05;15.45;;;;;;;15.94;95.22;102082.75;5217661;28;20040;-68
2021/07/20 06:47:57;;;;;;;21.40;14.40;;;;;;;15.96;92.78;102084.28;5220998;28;20657;-68
2021/07/20 06:50:29;;;;;;;22.40;14.85;;;;;;;15.98;92.23;102084.97;5219975;28;20017;-68
2021/07/20 06:53:00;;;;;;;22.98;14.77;;;;;;;16.00;93.13;102074.28;5219609;28;20125;-68
2021/07/20 06:55:33;;;;;;;21.58;14.30;;;;;;;16.15;92.45;102077.38;5217101;28;20064;-68
2021/07/20 06:58:06;;;;;;;20.85;15.05;;;;;;;16.20;92.97;102081.28;5220309;28;20049;-68
2021/07/20 07:00:37;;;;;;;20.63;14.13;;;;;;;16.35;92.48;102084.34;5213714;28;20033;-68
2021/07/20 07:03:10;;;;;;;22.85;14.88;;;;;;;16.44;92.24;102085.31;5217314;28;20045;-68
2021/07/20 07:05:42;;;;;;;22.43;14.60;;;;;;;16.49;92.91;102072.53;5218005;28;20514;-68
2021/07/20 07:08:14;;;;;;;21.83;13.70;;;;;;;16.61;91.42;102078.53;5217107;28;20542;-69
2021/07/20 07:10:46;;;;;;;24.60;15.52;;;;;;;16.69;91.13;102083.97;5218382;28;20056;-68
2021/07/20 07:13:18;;;;;;;23.25;15.18;;;;;;;16.74;90.73;102085.25;5223021;28;20358;-69
2021/07/20 07:15:51;;;;;;;21.80;14.63;;;;;;;16.80;89.76;102083.84;5218533;28;20036;-69
2021/07/20 07:18:24;;;;;;;22.58;15.07;;;;;;;16.86;90.04;102095.66;5219829;28;20032;-68
2021/07/20 07:20:57;;;;;;;22.33;15.07;;;;;;;16.93;89.58;102088.84;5220723;28;20022;-68
2021/07/20 07:23:30;;;;;;;21.25;14.38;;;;;;;17.05;88.98;102087.72;5232945;28;20040;-68
2021/07/20 07:26:03;;;;;;;19.95;13.93;;;;;;;17.08;87.61;102090.06;5215883;28;20041;-68
2021/07/20 07:28:35;;;;;;;23.50;14.75;;;;;;;17.19;90.66;102091.72;5216060;28;20149;-68
2021/07/20 07:31:09;;;;;;;18.02;12.68;;;;;;;17.32;86.34;102089.59;5215931;28;20112;-68
2021/07/20 07:33:41;;;;;;;20.05;14.23;;;;;;;17.43;87.09;102092.09;5211890;28;20766;-68
2021/07/20 07:36:15;;;;;;;22.85;13.88;;;;;;;17.52;87.74;102091.22;5212500;28;20026;-68
2021/07/20 07:38:47;;;;;;;20.50;13.95;;;;;;;17.62;85.97;102101.78;5212589;28;20112;-68
2021/07/20 07:41:20;;;;;;;17.40;12.20;;;;;;;17.67;84.25;102107.47;5217554;28;20056;-68
2021/07/20 07:43:54;;;;;;;18.23;13.20;;;;;;;17.74;83.93;102105.91;5218702;28;20108;-68
2021/07/20 07:46:27;;;;;;;17.90;13.32;;;;;;;17.75;85.28;102107.59;5218082;28;20028;-68
2021/07/20 07:49:00;;;;;;;19.08;12.70;;;;;;;17.89;84.98;102108.13;5213768;28;20029;-68
2021/07/20 07:51:31;;;;;;;18.73;13.10;;;;;;;17.95;82.82;102107.50;5212030;28;20041;-68
2021/07/20 07:54:03;;;;;;;17.73;13.10;;;;;;;17.98;83.07;102110.69;5213985;28;20030;-69
2021/07/20 07:56:37;;;;;;;20.33;13.57;;;;;;;18.02;83.10;102100.63;5215645;28;20029;-68
2021/07/20 07:59:09;;;;;;;18.80;12.93;;;;;;;18.08;83.82;102112.47;5220225;28;20479;-68
2021/07/20 08:01:45;;;;;;;19.63;12.65;;;;;;;18.23;83.43;102111.00;5219258;28;20028;-68
2021/07/20 08:04:24;;;;;;;17.67;12.75;;;;;;;18.22;83.32;102111.94;5217744;28;20458;-68
2021/07/20 08:06:57;;;;;;;18.65;13.82;;;;;;;18.32;84.23;102110.09;5220492;28;20095;-68
2021/07/20 08:09:31;;;;;;;17.85;12.77;;;;;;;18.35;80.56;102114.25;5220422;28;20101;-68
2021/07/20 08:12:03;;;;;;;17.90;12.68;;;;;;;18.36;80.94;102110.63;5218781;28;20104;-68
2021/07/20 08:14:35;;;;;;;21.45;13.00;;;;;;;18.46;80.85;102109.56;5218846;28;20036;-68
2021/07/20 08:17:07;;;;;;;20.53;13.07;;;;;;;18.48;80.23;102110.22;5219438;28;20017;-68
2021/07/20 08:19:40;;;;;;;18.30;13.30;;;;;;;18.68;82.07;102113.59;5219839;28;20713;-68
2021/07/20 08:22:16;;;;;;;17.27;12.60;;;;;;;18.88;81.37;102106.31;5218447;28;20087;-68
2021/07/20 08:24:54;;;;;;;21.35;13.52;;;;;;;18.73;80.06;102104.38;5217939;28;20026;-68
2021/07/20 08:27:35;;;;;;;17.95;12.98;;;;;;;18.91;80.11;102110.50;5220269;28;20038;-68
2021/07/20 08:30:08;;;;;;;19.60;13.65;;;;;;;18.83;80.16;102098.00;5219494;28;20052;-68
2021/07/20 08:32:57;;;;;;;16.88;12.40;;;;;;;19.14;79.40;102109.00;5218657;28;20044;-68
2021/07/20 08:35:31;;;;;;;19.45;13.10;;;;;;;19.21;79.21;102111.88;5219715;28;20498;-68
2021/07/20 08:38:10;;;;;;;18.73;13.18;;;;;;;19.30;77.99;102108.28;5218132;28;20050;-68
2021/07/20 08:40:53;;;;;;;18.35;12.40;;;;;;;19.50;78.45;102108.06;5213164;28;20450;-68
2021/07/20 08:43:40;;;;;;;21.77;14.77;;;;;;;19.43;78.21;102110.50;5214319;28;20087;-68
2021/07/20 08:46:27;;;;;;;21.23;13.55;;;;;;;19.57;79.20;102115.25;5219141;28;20516;-68
2021/07/20 08:49:25;;;;;;;18.25;13.38;;;;;;;19.76;77.36;102102.72;5219533;28;20057;-68
2021/07/20 08:52:07;;;;;;;19.45;13.32;;;;;;;19.71;75.54;102108.53;5218982;28;20038;-69
2021/07/20 08:54:50;;;;;;;19.35;12.90;;;;;;;19.66;75.32;102100.19;5218954;28;20032;-69
2021/07/20 08:57:29;;;;;;;18.23;13.27;;;;;;;19.85;75.41;102101.75;5211944;28;20402;-69
2021/07/20 09:00:10;;;;;;;20.55;13.18;;;;;;;19.99;76.18;102106.47;5218048;28;20109;-69
2021/07/20 09:02:45;;;;;;;17.65;13.52;;;;;;;19.95;75.28;102101.63;5220579;28;20068;-69
2021/07/20 09:05:25;;;;;;;20.13;13.55;;;;;;;20.24;75.00;102093.25;5220221;28;20168;-69
2021/07/20 09:08:07;;;;;;;19.55;13.60;;;;;;;20.30;76.58;102104.06;5219742;28;20037;-69
2021/07/20 09:10:50;;;;;;;18.00;13.10;;;;;;;20.45;73.78;102106.09;5221061;28;20029;-69
2021/07/20 09:13:29;;;;;;;20.08;12.80;;;;;;;20.56;75.50;102103.13;5220258;28;20475;-69
2021/07/20 09:16:11;;;;;;;15.77;12.52;;;;;;;20.72;75.41;102107.63;5220220;28;20037;-69
2021/07/20 09:18:57;;;;;;;17.70;13.73;;;;;;;20.77;73.60;102105.31;5211663;28;20513;-69
2021/07/20 09:21:30;;;;;;;18.70;13.27;;;;;;;20.85;73.06;102099.97;5211311;28;20030;-69
2021/07/20 09:24:29;;;;;;;15.43;12.05;;;;;;;20.98;72.80;102096.81;5219147;28;20025;-69
2021/07/20 09:27:17;;;;;;;17.10;12.95;;;;;;;21.00;73.62;102108.13;5217378;28;20034;-68
2021/07/20 09:29:53;;;;;;;17.80;13.27;;;;;;;21.02;72.26;102106.13;5212454;28;20030;-68
2021/07/20 09:32:38;;;;;;;18.95;13.48;;;;;;;20.97;71.92;102103.97;5219498;28;20040;-68
2021/07/20 09:35:41;;;;;;;20.73;14.23;;;;;;;21.06;72.29;102099.44;5218861;28;20029;-68
2021/07/20 09:38:49;;;;;;;16.90;12.65;;;;;;;21.24;73.08;102107.25;5207152;28;20056;-68
2021/07/20 09:41:49;;;;;;;14.57;12.05;;;;;;;21.12;70.73;102096.94;5206048;28;20045;-68
2021/07/20 09:44:44;;;;;;;14.45;11.80;;;;;;;21.37;71.76;102102.28;5216220;28;20484;-68
2021/07/20 09:47:41;;;;;;;18.38;12.70;;;;;;;21.55;70.46;102097.53;5217955;28;20036;-68
2021/07/20 09:50:16;;;;;;;17.92;13.00;;;;;;;21.38;70.36;102098.59;5218215;28;20369;-69
2021/07/20 09:53:27;;;;;;;18.40;13.05;;;;;;;21.60;71.10;102094.38;5220451;28;20284;-68
2021/07/20 09:56:16;;;;;;;18.90;13.25;;;;;;;21.64;71.99;102093.03;5221378;28;20037;-69
2021/07/20 09:59:09;;;;;;;16.67;11.80;;;;;;;21.66;69.05;102092.84;5221687;28;20084;-68
2021/07/20 10:01:53;;;;;;;18.88;12.20;;;;;;;21.74;69.44;102098.97;5220353;28;20491;-68
2021/07/20 10:04:32;;;;;;;15.70;12.25;;;;;;;21.86;70.12;102102.09;5212775;28;20033;-68
2021/07/20 10:07:13;;;;;;;15.45;11.80;;;;;;;22.04;72.14;102102.66;5212458;28;20037;-68
2021/07/20 10:09:53;;;;;;;17.27;11.75;;;;;;;22.14;69.41;102107.81;5207859;28;20108;-68
2021/07/20 10:12:58;;;;;;;17.40;13.15;;;;;;;22.26;65.80;102100.25;5218927;28;20021;-68
2021/07/20 10:15:48;;;;;;;16.67;12.65;;;;;;;22.39;68.10;102092.50;5231379;28;20037;-68
2021/07/20 10:18:28;;;;;;;15.75;11.75;;;;;;;22.29;67.20;102092.72;5215737;28;20072;-68
2021/07/20 10:21:02;;;;;;;15.10;11.30;;;;;;;22.35;67.09;102091.19;5218335;28;20022;-68
2021/07/20 10:23:44;;;;;;;13.93;10.63;;;;;;;22.54;67.81;102085.38;5220720;28;20021;-68
2021/07/20 10:26:18;;;;;;;15.10;11.70;;;;;;;22.39;69.39;102081.81;5225839;28;20024;-68
2021/07/20 10:29:12;;;;;;;15.95;12.20;;;;;;;22.62;67.07;102080.97;5219178;28;20387;-68
2021/07/20 10:32:12;;;;;;;16.73;11.73;;;;;;;22.45;66.73;102081.06;5217092;28;20038;-69
2021/07/20 10:34:48;;;;;;;16.00;12.60;;;;;;;22.27;64.72;102077.88;5221037;28;20026;-69
2021/07/20 10:37:23;;;;;;;16.40;12.10;;;;;;;22.40;65.89;102082.63;5219669;28;20053;-68
2021/07/20 10:40:12;;;;;;;14.85;10.27;;;;;;;22.66;64.61;102084.94;5219976;28;20030;-68
2021/07/20 10:43:00;;;;;;;14.75;11.07;;;;;;;22.60;65.36;102078.47;5220916;28;20037;-68
2021/07/20 10:45:35;;;;;;;15.20;10.85;;;;;;;22.82;65.19;102074.94;5216030;28;20440;-68
2021/07/20 10:48:08;;;;;;;16.67;11.52;;;;;;;22.65;65.23;102075.25;5217401;28;20029;-68
2021/07/20 10:50:55;;;;;;;15.65;11.70;;;;;;;22.84;64.76;102080.09;5222428;28;20112;-68
2021/07/20 10:53:39;;;;;;;12.98;10.40;;;;;;;22.83;66.08;102079.25;5218966;28;20450;-68
2021/07/20 10:56:20;;;;;;;15.68;11.32;;;;;;;22.85;63.81;102070.25;5220342;28;20056;-68
2021/07/20 10:59:12;;;;;;;15.40;11.00;;;;;;;23.10;64.97;102078.88;5222223;28;20038;-68
2021/07/20 11:02:07;;;;;;;13.93;10.50;;;;;;;23.23;64.30;102079.09;5214658;28;20022;-68
2021/07/20 11:05:02;;;;;;;13.75;10.77;;;;;;;23.38;64.90;102077.25;5212688;28;20029;-69
2021/07/20 11:07:45;;;;;;;12.98;10.10;;;;;;;23.37;63.06;102077.41;5199568;28;20034;-68
2021/07/20 11:10:27;;;;;;;13.70;11.02;;;;;;;23.26;64.09;102068.84;5212517;28;20038;-69
2021/07/20 11:13:10;;;;;;;17.38;12.02;;;;;;;23.35;63.07;102066.09;5221937;28;20033;-69
2021/07/20 11:15:51;;;;;;;17.63;12.77;;;;;;;23.19;59.86;102062.56;5220126;28;20036;-69
2021/07/20 11:18:29;;;;;;;14.10;11.35;;;;;;;23.17;61.99;102063.75;5216899;28;20494;-68
2021/07/20 11:21:05;;;;;;;17.67;12.68;;;;;;;23.66;63.77;102053.34;5215963;28;20118;-69
2021/07/20 11:23:45;;;;;;;16.42;11.25;;;;;;;23.50;62.16;102059.69;5214001;28;20160;-69
2021/07/20 11:26:17;;;;;;;13.30;10.82;;;;;;;23.33;62.40;102058.22;5213582;28;20033;-69
2021/07/20 11:28:49;;;;;;;15.10;11.02;;;;;;;23.49;61.41;102057.22;5218362;28;20035;-69
2021/07/20 11:31:48;;;;;;;14.38;10.38;;;;;;;23.86;63.04;102060.78;5218949;28;20033;-69
2021/07/20 11:34:25;;;;;;;13.55;10.50;;;;;;;23.66;61.31;102060.50;5220144;28;20476;-70
2021/07/20 11:37:04;;;;;;;13.75;10.95;;;;;;;23.84;61.53;102058.28;5208436;28;20104;-70
2021/07/20 11:39:42;;;;;;;14.95;11.23;;;;;;;23.66;62.13;102058.69;5212063;28;20446;-69
2021/07/20 11:42:16;;;;;;;13.52;10.63;;;;;;;23.97;60.07;102054.94;5219477;28;20029;-69
2021/07/20 11:44:54;;;;;;;13.20;10.13;;;;;;;23.85;60.17;102061.81;5217361;28;20108;-70
2021/07/20 11:47:44;;;;;;;14.43;11.55;;;;;;;24.22;61.00;102060.75;5216838;28;20056;-69
2021/07/20 11:50:22;;;;;;;13.32;10.75;;;;;;;23.99;59.54;102064.44;5217245;28;20116;-69
2021/07/20 11:53:05;;;;;;;13.73;11.13;;;;;;;23.99;61.27;102059.09;5217153;28;20032;-69